createdAt,value
2019-03-26T00:01:23.587Z,3.70
2019-03-26T00:04:05.351Z,3.92
2019-03-26T00:06:27.980Z,3.35
2019-03-26T00:08:59.260Z,3.50
2019-03-26T00:11:30.597Z,3.20
2019-03-26T00:14:01.872Z,3.60
2019-03-26T00:16:33.166Z,2.95
2019-03-26T00:19:04.409Z,3.02
2019-03-26T00:21:35.974Z,3.20
2019-03-26T00:24:07.324Z,3.30
2019-03-26T00:26:38.512Z,3.87
2019-03-26T00:29:09.787Z,2.77
2019-03-26T00:31:41.120Z,3.22
2019-03-26T00:34:19.146Z,2.95
2019-03-26T00:36:45.392Z,2.85
2019-03-26T00:39:16.678Z,3.00
2019-03-26T00:41:48.018Z,3.30
2019-03-26T00:44:19.352Z,3.30
2019-03-26T00:46:50.655Z,2.75
2019-03-26T00:49:21.946Z,3.67
2019-03-26T00:51:53.266Z,4.10
2019-03-26T00:54:24.443Z,3.30
2019-03-26T00:56:55.687Z,3.70
2019-03-26T00:59:27.084Z,3.27
2019-03-26T01:01:58.391Z,2.90
2019-03-26T01:04:33.032Z,3.52
2019-03-26T01:07:02.806Z,3.50
2019-03-26T01:09:34.084Z,3.50
2019-03-26T01:12:05.414Z,3.30
2019-03-26T01:14:36.686Z,3.42
2019-03-26T01:17:08.000Z,3.72
2019-03-26T01:19:39.273Z,3.27
2019-03-26T01:22:10.612Z,3.98
2019-03-26T01:24:41.906Z,3.70
2019-03-26T01:27:13.190Z,2.67
2019-03-26T01:29:44.448Z,3.22
2019-03-26T01:32:15.757Z,3.08
2019-03-26T01:34:46.989Z,3.35
2019-03-26T01:37:18.309Z,3.60
2019-03-26T01:39:49.554Z,2.92
2019-03-26T01:42:20.870Z,2.90
2019-03-26T01:44:52.198Z,3.00
2019-03-26T01:47:23.505Z,3.70
2019-03-26T01:49:54.781Z,3.08
2019-03-26T01:52:26.089Z,2.90
2019-03-26T01:54:57.450Z,2.77
2019-03-26T01:57:28.757Z,3.60
2019-03-26T02:00:00.038Z,3.35
2019-03-26T02:02:31.344Z,3.67
2019-03-26T02:05:02.520Z,3.10
2019-03-26T02:07:33.881Z,3.20
2019-03-26T02:10:05.468Z,3.60
2019-03-26T02:12:36.794Z,2.90
2019-03-26T02:15:11.452Z,4.10
2019-03-26T02:17:42.777Z,2.97
2019-03-26T02:20:14.083Z,4.00
2019-03-26T02:22:45.287Z,3.77
2019-03-26T02:25:16.617Z,3.42
2019-03-26T02:27:47.932Z,4.03
2019-03-26T02:30:19.240Z,4.00
2019-03-26T02:32:50.561Z,3.60
2019-03-26T02:35:21.928Z,4.10
2019-03-26T02:37:53.243Z,4.05
2019-03-26T02:40:24.495Z,4.00
2019-03-26T02:42:55.817Z,3.97
2019-03-26T02:45:27.189Z,3.70
2019-03-26T02:47:58.494Z,4.58
2019-03-26T02:50:29.747Z,4.10
2019-03-26T02:53:01.577Z,3.45
2019-03-26T02:55:32.804Z,3.63
2019-03-26T02:58:04.092Z,3.15
2019-03-26T03:00:35.500Z,3.12
2019-03-26T03:03:07.365Z,3.40
2019-03-26T03:05:38.564Z,4.10
2019-03-26T03:08:09.922Z,4.08
2019-03-26T03:10:41.272Z,4.10
2019-03-26T03:13:12.648Z,3.90
2019-03-26T03:15:44.073Z,3.60
2019-03-26T03:18:15.391Z,3.30
2019-03-26T03:20:46.682Z,3.40
2019-03-26T03:23:18.131Z,4.33
2019-03-26T03:25:49.474Z,3.50
2019-03-26T03:28:20.764Z,3.65
2019-03-26T03:30:52.246Z,3.75
2019-03-26T03:33:23.644Z,3.55
2019-03-26T03:35:54.983Z,3.10
2019-03-26T03:38:26.404Z,3.70
2019-03-26T03:40:57.783Z,4.12
2019-03-26T03:43:29.169Z,4.15
2019-03-26T03:46:00.741Z,3.33
2019-03-26T03:48:33.349Z,3.35
2019-03-26T03:51:07.914Z,3.47
2019-03-26T03:53:39.264Z,4.58
2019-03-26T03:56:13.644Z,3.08
2019-03-26T03:58:48.792Z,3.70
2019-03-26T04:01:20.158Z,3.10
2019-03-26T04:03:51.584Z,3.72
2019-03-26T04:06:22.880Z,3.62
2019-03-26T04:08:54.251Z,3.27
2019-03-26T04:11:25.630Z,3.47
2019-03-26T04:13:56.958Z,2.90
2019-03-26T04:16:28.379Z,2.92
2019-03-26T04:18:59.753Z,3.70
2019-03-26T04:21:31.124Z,3.30
2019-03-26T04:24:02.429Z,3.62
2019-03-26T04:26:33.847Z,2.98
2019-03-26T04:29:05.198Z,2.85
2019-03-26T04:31:36.751Z,2.98
2019-03-26T04:34:08.107Z,3.00
2019-03-26T04:36:58.407Z,2.70
2019-03-26T04:39:30.989Z,2.40
2019-03-26T04:42:21.260Z,2.72
2019-03-26T04:44:52.635Z,2.35
2019-03-26T04:47:26.858Z,2.70
2019-03-26T04:49:58.403Z,2.95
2019-03-26T04:52:29.827Z,2.92
2019-03-26T04:55:01.295Z,2.50
2019-03-26T04:57:32.642Z,2.58
2019-03-26T05:00:04.723Z,2.30
2019-03-26T05:02:36.104Z,2.42
2019-03-26T05:05:07.585Z,2.40
2019-03-26T05:07:39.020Z,2.50
2019-03-26T05:10:10.657Z,2.40
2019-03-26T05:12:41.931Z,2.40
2019-03-26T05:15:13.648Z,2.22
2019-03-26T05:17:45.074Z,1.77
2019-03-26T05:20:16.504Z,1.70
2019-03-26T05:22:47.790Z,1.70
2019-03-26T05:25:19.187Z,1.83
2019-03-26T05:27:50.513Z,2.00
2019-03-26T05:30:21.832Z,1.98
2019-03-26T05:32:53.208Z,1.70
2019-03-26T05:35:24.476Z,2.22
2019-03-26T05:37:55.776Z,1.90
2019-03-26T05:40:27.064Z,2.30
2019-03-26T05:42:58.340Z,2.33
2019-03-26T05:45:29.739Z,1.80
2019-03-26T05:48:01.219Z,2.12
2019-03-26T05:50:32.554Z,1.90
2019-03-26T05:53:03.879Z,2.30
2019-03-26T05:55:35.164Z,1.40
2019-03-26T05:58:06.498Z,1.80
2019-03-26T06:00:37.801Z,2.17
2019-03-26T06:03:09.085Z,2.10
2019-03-26T06:05:40.351Z,1.90
2019-03-26T06:08:11.652Z,2.20
2019-03-26T06:10:42.876Z,1.98
2019-03-26T06:13:14.137Z,2.20
2019-03-26T06:15:45.682Z,2.00
2019-03-26T06:18:17.036Z,2.10
2019-03-26T06:20:48.442Z,2.33
2019-03-26T06:23:20.122Z,2.17
2019-03-26T06:25:51.446Z,2.08
2019-03-26T06:28:22.757Z,2.10
2019-03-26T06:30:54.238Z,2.12
2019-03-26T06:33:25.547Z,2.42
2019-03-26T06:35:56.832Z,2.07
2019-03-26T06:38:28.322Z,2.50
2019-03-26T06:40:59.579Z,2.50
2019-03-26T06:43:31.015Z,2.20
2019-03-26T06:46:02.474Z,2.40
2019-03-26T06:48:35.148Z,2.07
2019-03-26T06:51:06.744Z,2.45
2019-03-26T06:53:41.095Z,2.27
2019-03-26T06:56:12.394Z,2.67
2019-03-26T06:58:43.866Z,2.20
2019-03-26T07:01:15.224Z,2.70
2019-03-26T07:03:46.580Z,2.37
2019-03-26T07:06:17.980Z,2.17
2019-03-26T07:08:49.350Z,2.50
2019-03-26T07:11:24.957Z,2.62
2019-03-26T07:13:56.262Z,2.95
2019-03-26T07:16:27.625Z,2.22
2019-03-26T07:18:58.897Z,2.17
2019-03-26T07:21:30.290Z,3.15
2019-03-26T07:24:01.697Z,2.20
2019-03-26T07:26:33.069Z,2.40
2019-03-26T07:29:04.451Z,2.60
2019-03-26T07:31:35.737Z,2.20
2019-03-26T07:34:07.333Z,3.12
2019-03-26T07:36:38.848Z,2.83
2019-03-26T07:39:10.237Z,2.35
2019-03-26T07:41:41.617Z,2.92
2019-03-26T07:44:13.055Z,2.75
2019-03-26T07:46:44.388Z,2.60
2019-03-26T07:49:15.722Z,2.90
2019-03-26T07:51:47.119Z,2.40
2019-03-26T07:54:18.352Z,2.75
2019-03-26T07:56:49.768Z,2.85
2019-03-26T07:59:21.204Z,3.05
2019-03-26T08:01:52.582Z,2.52
2019-03-26T08:04:23.970Z,2.30
2019-03-26T08:06:55.335Z,2.10
2019-03-26T08:09:26.930Z,2.90
2019-03-26T08:11:58.386Z,2.40
2019-03-26T08:14:29.764Z,2.65
2019-03-26T08:17:01.072Z,2.55
2019-03-26T08:19:32.444Z,2.35
2019-03-26T08:22:03.919Z,2.60
2019-03-26T08:24:35.191Z,2.67
2019-03-26T08:27:09.322Z,2.22
2019-03-26T08:29:40.708Z,2.12
2019-03-26T08:32:12.143Z,1.87
2019-03-26T08:34:46.595Z,2.20
2019-03-26T08:37:16.766Z,2.10
2019-03-26T08:39:48.096Z,1.82
2019-03-26T08:42:19.432Z,2.05
2019-03-26T08:44:50.924Z,2.10
2019-03-26T08:47:22.289Z,2.00
2019-03-26T08:49:53.664Z,2.17
2019-03-26T08:52:25.084Z,1.90
2019-03-26T08:54:56.438Z,1.75
2019-03-26T08:57:27.865Z,2.50
2019-03-26T08:59:59.251Z,1.55
2019-03-26T09:02:30.529Z,1.52
2019-03-26T09:05:01.905Z,1.57
2019-03-26T09:07:33.179Z,1.42
2019-03-26T09:10:05.016Z,1.70
2019-03-26T09:12:39.374Z,2.08
2019-03-26T09:15:14.587Z,1.40
2019-03-26T09:17:46.190Z,1.73
2019-03-26T09:20:17.825Z,1.60
2019-03-26T09:22:49.073Z,1.90
2019-03-26T09:25:20.286Z,1.57
2019-03-26T09:27:52.543Z,1.80
2019-03-26T09:30:23.921Z,2.12
2019-03-26T09:32:55.249Z,1.92
2019-03-26T09:35:26.563Z,1.52
2019-03-26T09:37:57.873Z,1.30
2019-03-26T09:40:29.135Z,2.30
2019-03-26T09:43:00.523Z,1.75
2019-03-26T09:45:31.798Z,1.50
2019-03-26T09:48:03.079Z,1.60
2019-03-26T09:50:36.666Z,2.10
2019-03-26T09:53:07.994Z,1.62
2019-03-26T09:55:39.302Z,1.40
2019-03-26T09:58:10.624Z,1.50
2019-03-26T10:00:42.102Z,1.50
2019-03-26T10:03:13.452Z,1.40
2019-03-26T10:05:47.821Z,1.60
2019-03-26T10:08:19.157Z,1.60
2019-03-26T10:10:50.465Z,1.50
2019-03-26T10:13:21.833Z,1.32
2019-03-26T10:15:53.155Z,1.20
2019-03-26T10:18:24.473Z,1.10
2019-03-26T10:20:55.799Z,1.40
2019-03-26T10:23:27.132Z,1.40
2019-03-26T10:25:58.475Z,1.23
2019-03-26T10:28:29.869Z,1.65
2019-03-26T10:31:01.218Z,1.37
2019-03-26T10:33:32.584Z,1.42
2019-03-26T10:36:03.935Z,1.60
2019-03-26T10:38:35.418Z,1.52
2019-03-26T10:41:06.724Z,1.90
2019-03-26T10:43:38.015Z,1.20
2019-03-26T10:46:09.321Z,1.72
2019-03-26T10:48:40.623Z,1.40
2019-03-26T10:51:11.990Z,1.00
2019-03-26T10:53:43.305Z,1.50
2019-03-26T10:56:14.709Z,1.20
2019-03-26T10:58:46.149Z,0.90
2019-03-26T11:01:17.423Z,1.10
2019-03-26T11:03:48.751Z,1.00
2019-03-26T11:06:20.099Z,1.40
2019-03-26T11:08:51.318Z,1.87
2019-03-26T11:11:22.668Z,1.10
2019-03-26T11:13:54.066Z,1.30
2019-03-26T11:16:25.459Z,1.20
2019-03-26T11:18:56.764Z,2.02
2019-03-26T11:21:28.078Z,1.90
2019-03-26T11:23:59.411Z,1.15
2019-03-26T11:26:30.743Z,1.40
2019-03-26T11:29:02.130Z,1.15
2019-03-26T11:31:33.403Z,1.30
2019-03-26T11:34:04.805Z,1.12
2019-03-26T11:36:36.283Z,1.02
2019-03-26T11:39:09.179Z,1.20
2019-03-26T11:41:40.488Z,1.30
2019-03-26T11:44:11.840Z,1.10
2019-03-26T11:46:43.133Z,0.78
2019-03-26T11:49:14.434Z,1.00
2019-03-26T11:51:46.449Z,1.20
2019-03-26T11:54:17.865Z,0.90
2019-03-26T11:56:49.227Z,1.30
2019-03-26T11:59:20.566Z,1.12
2019-03-26T12:01:52.568Z,1.20
2019-03-26T12:04:24.094Z,1.00
2019-03-26T12:06:55.431Z,0.82
2019-03-26T12:09:26.707Z,0.90
2019-03-26T12:11:57.962Z,1.00
2019-03-26T12:14:29.230Z,0.90
2019-03-26T12:17:00.541Z,1.00
2019-03-26T12:19:31.782Z,0.93
2019-03-26T12:22:03.082Z,0.90
2019-03-26T12:24:34.461Z,1.10
2019-03-26T12:27:05.805Z,0.80
2019-03-26T12:29:37.024Z,1.12
2019-03-26T12:32:08.496Z,0.90
2019-03-26T12:34:39.898Z,1.17
2019-03-26T12:37:11.226Z,0.98
2019-03-26T12:39:44.208Z,1.05
2019-03-26T12:42:15.803Z,1.20
2019-03-26T12:44:47.104Z,1.35
2019-03-26T12:47:18.450Z,1.00
2019-03-26T12:49:49.737Z,0.82
2019-03-26T12:52:21.000Z,1.05
2019-03-26T12:54:52.228Z,1.00
2019-03-26T12:57:23.556Z,1.20
2019-03-26T12:59:54.851Z,0.90
2019-03-26T13:02:26.149Z,1.17
2019-03-26T13:04:57.424Z,1.15
2019-03-26T13:07:28.652Z,1.20
2019-03-26T13:10:12.631Z,1.07
2019-03-26T13:12:32.911Z,1.30
2019-03-26T13:15:04.222Z,1.37
2019-03-26T13:17:35.514Z,1.00
2019-03-26T13:20:07.150Z,1.30
2019-03-26T13:22:38.498Z,1.00
2019-03-26T13:25:11.215Z,0.90
2019-03-26T13:27:42.474Z,1.20
2019-03-26T13:30:14.463Z,1.70
2019-03-26T13:32:45.791Z,1.40
2019-03-26T13:35:17.095Z,1.60
2019-03-26T13:37:48.395Z,1.20
2019-03-26T13:40:27.061Z,1.50
2019-03-26T13:42:53.770Z,1.22
2019-03-26T13:45:25.102Z,1.37
2019-03-26T13:47:56.359Z,1.67
2019-03-26T13:50:27.658Z,1.07
2019-03-26T13:52:58.909Z,1.30
2019-03-26T13:55:30.219Z,1.00
2019-03-26T13:58:01.535Z,1.37
2019-03-26T14:00:40.912Z,1.22
2019-03-26T14:03:12.279Z,1.40
2019-03-26T14:05:43.580Z,1.20
2019-03-26T14:08:14.892Z,1.10
2019-03-26T14:10:46.251Z,1.02
2019-03-26T14:13:17.584Z,1.10
2019-03-26T14:15:48.874Z,1.20
2019-03-26T14:18:20.172Z,1.20
2019-03-26T14:20:51.464Z,1.00
2019-03-26T14:23:22.846Z,1.10
2019-03-26T14:25:54.153Z,1.60
2019-03-26T14:28:25.396Z,1.37
2019-03-26T14:30:56.795Z,1.22
2019-03-26T14:33:28.019Z,1.37
2019-03-26T14:35:59.345Z,1.13
2019-03-26T14:38:30.750Z,1.50
2019-03-26T14:41:02.005Z,1.30
2019-03-26T14:43:33.420Z,1.67
2019-03-26T14:46:04.846Z,1.50
2019-03-26T14:48:36.155Z,1.40
2019-03-26T14:51:07.556Z,1.75
2019-03-26T14:53:38.904Z,1.70
2019-03-26T14:56:10.183Z,1.95
2019-03-26T14:58:41.407Z,1.42
2019-03-26T15:01:12.756Z,1.60
2019-03-26T15:03:44.128Z,1.50
2019-03-26T15:06:15.508Z,1.40
2019-03-26T15:08:46.890Z,1.65
2019-03-26T15:11:18.224Z,1.43
2019-03-26T15:13:49.757Z,1.50
2019-03-26T15:16:21.085Z,1.75
2019-03-26T15:18:52.407Z,1.13
2019-03-26T15:21:23.706Z,1.62
2019-03-26T15:23:54.990Z,1.37
2019-03-26T15:26:26.297Z,1.37
2019-03-26T15:28:57.591Z,1.30
2019-03-26T15:31:28.947Z,0.90
2019-03-26T15:34:00.376Z,1.12
2019-03-26T15:36:31.710Z,1.50
2019-03-26T15:39:04.934Z,1.17
2019-03-26T15:41:36.243Z,1.12
2019-03-26T15:44:07.502Z,1.20
2019-03-26T15:46:38.758Z,1.40
2019-03-26T15:49:10.169Z,0.80
2019-03-26T15:51:41.537Z,0.60
2019-03-26T15:54:12.899Z,0.78
2019-03-26T15:56:44.179Z,0.70
2019-03-26T15:59:15.531Z,0.93
2019-03-26T16:01:46.890Z,0.70
2019-03-26T16:04:18.182Z,0.60
2019-03-26T16:06:49.625Z,0.50
2019-03-26T16:09:21.279Z,0.50
2019-03-26T16:11:52.503Z,0.50
2019-03-26T16:14:23.876Z,0.50
2019-03-26T16:16:55.188Z,0.50
2019-03-26T16:19:32.111Z,0.50
2019-03-26T16:21:59.440Z,0.50
2019-03-26T16:24:30.756Z,0.68
2019-03-26T16:27:02.092Z,0.50
2019-03-26T16:29:33.354Z,0.60
2019-03-26T16:32:04.694Z,0.47
2019-03-26T16:34:36.010Z,0.50
2019-03-26T16:37:07.447Z,0.50
2019-03-26T16:39:38.771Z,0.53
2019-03-26T16:42:10.141Z,0.70
2019-03-26T16:44:41.388Z,0.70
2019-03-26T16:47:12.651Z,0.90
2019-03-26T16:49:43.945Z,0.70
2019-03-26T16:52:15.251Z,0.50
2019-03-26T16:54:46.594Z,0.80
2019-03-26T16:57:18.034Z,0.72
2019-03-26T16:59:49.322Z,0.73
2019-03-26T17:02:20.529Z,1.10
2019-03-26T17:04:51.866Z,1.00
2019-03-26T17:07:23.205Z,1.57
2019-03-26T17:09:54.485Z,1.37
2019-03-26T17:12:25.779Z,1.65
2019-03-26T17:14:57.070Z,2.33
2019-03-26T17:17:28.394Z,1.90
2019-03-26T17:19:59.736Z,2.10
2019-03-26T17:22:31.024Z,2.12
2019-03-26T17:25:02.269Z,2.10
2019-03-26T17:27:33.596Z,1.92
2019-03-26T17:30:05.036Z,1.67
2019-03-26T17:32:36.398Z,1.87
2019-03-26T17:35:08.012Z,1.40
2019-03-26T17:37:39.324Z,1.65
2019-03-26T17:40:10.744Z,1.57
2019-03-26T17:42:42.020Z,1.63
2019-03-26T17:45:13.592Z,1.77
2019-03-26T17:47:44.959Z,1.77
2019-03-26T17:50:16.308Z,1.53
2019-03-26T17:52:47.634Z,1.47
2019-03-26T17:55:18.853Z,1.35
2019-03-26T17:57:50.168Z,1.60
2019-03-26T18:00:36.259Z,1.30
2019-03-26T18:03:07.645Z,1.10
2019-03-26T18:05:38.948Z,1.20
2019-03-26T18:08:10.317Z,1.20
2019-03-26T18:10:41.674Z,1.35
2019-03-26T18:13:12.997Z,1.25
2019-03-26T18:15:44.328Z,1.05
2019-03-26T18:18:15.637Z,1.20
2019-03-26T18:20:46.980Z,1.07
2019-03-26T18:23:18.239Z,0.90
2019-03-26T18:25:49.598Z,1.00
2019-03-26T18:28:20.977Z,1.00
2019-03-26T18:30:52.337Z,1.20
2019-03-26T18:33:23.674Z,1.22
2019-03-26T18:35:55.012Z,1.00
2019-03-26T18:38:26.349Z,1.20
2019-03-26T18:40:57.637Z,1.40
2019-03-26T18:43:28.970Z,1.42
2019-03-26T18:46:00.299Z,1.10
2019-03-26T18:48:31.621Z,1.20
2019-03-26T18:51:02.955Z,1.90
2019-03-26T18:53:34.297Z,1.67
2019-03-26T18:56:05.693Z,2.20
2019-03-26T18:58:37.441Z,1.90
2019-03-26T19:01:08.818Z,2.50
2019-03-26T19:03:40.171Z,2.17
2019-03-26T19:06:11.510Z,2.52
2019-03-26T19:08:42.945Z,2.72
2019-03-26T19:11:14.358Z,2.75
2019-03-26T19:13:45.949Z,3.05
2019-03-26T19:16:17.326Z,3.60
2019-03-26T19:18:48.810Z,3.22
2019-03-26T19:21:20.113Z,3.30
2019-03-26T19:24:03.508Z,3.70
2019-03-26T19:26:24.543Z,4.05
2019-03-26T19:28:55.901Z,5.08
2019-03-26T19:31:27.363Z,4.47
2019-03-26T19:33:58.659Z,4.90
2019-03-26T19:36:29.902Z,5.40
2019-03-26T19:39:01.078Z,5.50
2019-03-26T19:41:32.396Z,5.78
2019-03-26T19:44:03.809Z,5.65
2019-03-26T19:46:37.178Z,6.03
2019-03-26T19:49:08.213Z,6.12
2019-03-26T19:51:39.524Z,6.47
2019-03-26T19:54:10.901Z,5.80
2019-03-26T19:56:42.232Z,5.60
2019-03-26T19:59:13.596Z,5.58
2019-03-26T20:01:45.002Z,6.57
2019-03-26T20:04:16.337Z,7.00
2019-03-26T20:06:47.594Z,6.85
2019-03-26T20:09:18.979Z,6.03
2019-03-26T20:11:50.340Z,7.30
2019-03-26T20:14:21.619Z,6.97
2019-03-26T20:16:52.998Z,6.05
2019-03-26T20:19:24.309Z,7.43
2019-03-26T20:21:55.551Z,6.72
2019-03-26T20:24:26.780Z,5.50
2019-03-26T20:26:58.191Z,6.47
2019-03-26T20:29:29.519Z,6.50
2019-03-26T20:32:00.874Z,5.80
2019-03-26T20:34:32.294Z,6.50
2019-03-26T20:37:03.540Z,6.20
2019-03-26T20:39:34.889Z,6.28
2019-03-26T20:42:06.262Z,5.70
2019-03-26T20:44:37.576Z,6.03
2019-03-26T20:47:08.974Z,6.20
2019-03-26T20:49:40.310Z,6.47
2019-03-26T20:52:11.663Z,7.15
2019-03-26T20:54:42.951Z,5.93
2019-03-26T20:57:14.584Z,6.17
2019-03-26T20:59:45.793Z,6.20
2019-03-26T21:02:17.069Z,5.35
2019-03-26T21:04:48.510Z,6.33
2019-03-26T21:07:19.966Z,6.97
2019-03-26T21:09:51.359Z,6.20
2019-03-26T21:12:22.683Z,6.08
2019-03-26T21:14:53.922Z,6.83
2019-03-26T21:17:25.309Z,6.35
2019-03-26T21:19:56.593Z,6.15
2019-03-26T21:22:27.863Z,5.90
2019-03-26T21:24:59.144Z,7.15
2019-03-26T21:27:30.471Z,6.00
2019-03-26T21:30:10.657Z,6.80
2019-03-26T21:32:34.929Z,6.50
2019-03-26T21:35:06.959Z,7.20
2019-03-26T21:37:38.640Z,7.03
2019-03-26T21:40:10.848Z,7.03
2019-03-26T21:42:42.131Z,7.70
2019-03-26T21:45:15.058Z,8.05
2019-03-26T21:47:46.373Z,7.03
2019-03-26T21:50:17.655Z,7.53
2019-03-26T21:52:50.157Z,7.20
2019-03-26T21:55:21.480Z,6.70
2019-03-26T21:57:52.738Z,6.90
2019-03-26T22:00:24.067Z,7.90
2019-03-26T22:02:55.474Z,7.85
2019-03-26T22:05:27.056Z,6.87
2019-03-26T22:08:03.925Z,5.95
2019-03-26T22:10:35.482Z,6.67
2019-03-26T22:13:06.991Z,6.53
2019-03-26T22:15:39.967Z,5.70
2019-03-26T22:18:11.367Z,4.25
2019-03-26T22:20:42.802Z,5.45
2019-03-26T22:23:14.405Z,4.95
2019-03-26T22:25:45.776Z,4.55
2019-03-26T22:28:17.216Z,4.50
2019-03-26T22:30:48.615Z,4.03
2019-03-26T22:33:19.963Z,5.20
2019-03-26T22:35:51.285Z,4.70
2019-03-26T22:38:22.646Z,4.70
2019-03-26T22:40:53.954Z,4.78
2019-03-26T22:43:25.252Z,4.50
2019-03-26T22:45:56.618Z,5.12
2019-03-26T22:48:27.930Z,4.20
2019-03-26T22:50:59.264Z,5.50
2019-03-26T22:53:30.596Z,5.13
2019-03-26T22:56:01.921Z,4.25
2019-03-26T22:58:33.251Z,4.97
2019-03-26T23:01:04.911Z,4.80
2019-03-26T23:03:36.265Z,4.10
2019-03-26T23:06:07.688Z,4.65
2019-03-26T23:08:39.073Z,4.40
2019-03-26T23:11:10.412Z,4.30
2019-03-26T23:13:41.782Z,4.00
2019-03-26T23:16:14.234Z,4.00
2019-03-26T23:18:45.552Z,4.25
2019-03-26T23:21:19.755Z,3.90
2019-03-26T23:23:50.027Z,4.20
2019-03-26T23:26:21.338Z,3.57
2019-03-26T23:28:52.703Z,3.08
2019-03-26T23:31:24.077Z,3.42
2019-03-26T23:33:55.434Z,3.40
2019-03-26T23:36:26.757Z,3.60
2019-03-26T23:38:58.094Z,3.47
2019-03-26T23:41:29.472Z,3.60
2019-03-26T23:44:00.813Z,3.33
2019-03-26T23:46:32.152Z,3.17
2019-03-26T23:49:03.390Z,3.35
2019-03-26T23:51:34.710Z,3.05
2019-03-26T23:54:06.058Z,3.20
2019-03-26T23:56:37.349Z,2.90
2019-03-26T23:59:08.680Z,2.70
